Daio — JG5587 — position and weather

sailwx.info

Track history (hours):
 
Tides and Currents Weather Stations Pressure Air Temp Water Temp Dewpoint Dewpoint Depression Visibility Wind Speed Wind Dir Waves Ship Positions

Daio

Last reported at 2014-Aug-20 04:33 UTC. Time now 2014-Aug-20 04:53 UTC.
Position N 35°30' E 139°60'.

Length 36 m; draft 3.4 m.

Type: Tug. MMSI: 431003092.

Date/timePositionNaut miles runAvg speedWind from/ knotsBaromVisibWave heightAir tempDewpointWater temp
2014-Aug-20 04:33N 35°30' E 139°60'0 0.0
2014-Aug-20 03:33N 35°30' E 139°60'0 0.0
2014-Aug-20 02:33N 35°30' E 139°60'0 0.0
2014-Aug-20 01:33N 35°30' E 139°60'0 0.0
2014-Aug-20 00:33N 35°30' E 139°60'0 0.0
2014-Aug-19 23:33N 35°30' E 139°60'2 2.1
2014-Aug-19 22:33N 35°31' E 140°02'3 3.1
2014-Aug-19 21:33N 35°34' E 140°03'3 3.4
2014-Aug-19 20:33N 35°36' E 140°06'0 0.0
2014-Aug-19 19:33N 35°36' E 140°06'0 0.0
2014-Aug-19 18:33N 35°36' E 140°06'0 0.0
2014-Aug-19 17:33N 35°36' E 140°06'0 0.0
2014-Aug-19 16:33N 35°36' E 140°06'0 0.0
2014-Aug-19 15:33N 35°36' E 140°06'0 0.0
2014-Aug-19 14:33N 35°36' E 140°06'0 0.0
2014-Aug-19 13:33N 35°36' E 140°06'0 0.0
2014-Aug-19 08:03N 35°36' E 140°06'0 0.0
2014-Aug-19 07:33N 35°36' E 140°06'0 0.0
2014-Aug-19 06:33N 35°36' E 140°06'0 0.0
2014-Aug-19 05:33N 35°36' E 140°06'2 2.1
2014-Aug-19 04:33N 35°35' E 140°04'8 8.3
2014-Aug-19 03:33N 35°28' E 139°58'0 0.1
2014-Aug-19 02:33N 35°28' E 139°58'2 2.0
2014-Aug-19 01:34N 35°30' E 139°56'1 1.0
2014-Aug-19 00:34N 35°31' E 139°56'8 7.8
2014-Aug-18 23:33N 35°35' E 140°04'1 1.3
2014-Aug-18 22:33N 35°35' E 140°06'1 1.5
2014-Aug-18 21:33N 35°35' E 140°04'0 0.1
2014-Aug-18 20:34N 35°35' E 140°04'2 2.2
2014-Aug-18 19:33N 35°36' E 140°06'0 0.0
2014-Aug-18 18:33N 35°36' E 140°06'0 0.0
2014-Aug-18 17:33N 35°36' E 140°06'0 0.0
2014-Aug-18 16:33N 35°36' E 140°06'0 0.0
2014-Aug-18 15:33N 35°36' E 140°06'0 0.0
2014-Aug-18 14:33N 35°36' E 140°06'0 0.0
2014-Aug-18 13:33N 35°36' E 140°06'0 0.0
2014-Aug-18 12:33N 35°36' E 140°06'0 0.0
2014-Aug-18 11:33N 35°36' E 140°06'0 0.0
2014-Aug-18 10:33N 35°36' E 140°06'0 0.0
2014-Aug-18 09:33N 35°36' E 140°06'0 0.0
2014-Aug-18 08:33N 35°36' E 140°06'0 0.0
2014-Aug-18 07:33N 35°36' E 140°06'6 5.7
2014-Aug-18 06:34N 35°32' E 140°01'5 4.8
2014-Aug-18 05:34N 35°28' E 139°58'1 0.6
2014-Aug-18 04:34N 35°29' E 139°59'0 0.0
2014-Aug-18 03:33N 35°29' E 139°59'0 0.0
2014-Aug-18 02:33N 35°29' E 139°59'2 1.5
2014-Aug-18 01:34N 35°29' E 140°00'1 0.8
2014-Aug-18 00:34N 35°29' E 139°60'9 1.4
2014-Aug-17 18:33N 35°36' E 140°06'0 0.0
2014-Aug-17 17:33N 35°36' E 140°06'0 0.0
2014-Aug-17 16:33N 35°36' E 140°06'0 0.0
2014-Aug-17 15:33N 35°36' E 140°06'0 0.0
2014-Aug-17 14:34N 35°36' E 140°06'0 0.0
2014-Aug-17 13:33N 35°36' E 140°06'0 0.0
2014-Aug-17 12:33N 35°36' E 140°06'0 0.0
2014-Aug-17 11:33N 35°36' E 140°06'0 0.0
2014-Aug-17 10:34N 35°36' E 140°06'0 0.0
2014-Aug-17 09:34N 35°36' E 140°06'5 5.2
2014-Aug-17 08:34N 35°32' E 140°02'5 5.1
2014-Aug-17 07:33N 35°28' E 139°58'1 0.5
2014-Aug-17 06:33N 35°29' E 139°58'1 0.6
2014-Aug-17 05:33N 35°29' E 139°57'0 0.1
2014-Aug-17 04:33N 35°29' E 139°57'3 2.7
2014-Aug-17 03:33N 35°29' E 140°00'2 1.7
2014-Aug-17 02:33N 35°29' E 139°58'2 2.2
2014-Aug-17 01:33N 35°31' E 139°56'0 0.1
2014-Aug-17 00:33N 35°31' E 139°56'2 1.9
2014-Aug-16 23:33N 35°29' E 139°55'0 0.1
2014-Aug-16 22:33N 35°29' E 139°55'5 5.0
2014-Aug-16 21:33N 35°32' E 139°59'6 5.8
2014-Aug-16 20:33N 35°35' E 140°06'1 1.0
2014-Aug-16 19:33N 35°36' E 140°06'0 0.0
2014-Aug-16 08:33N 35°36' E 140°06'7 7.2
2014-Aug-16 07:33N 35°30' E 140°01'1 1.4
2014-Aug-16 06:33N 35°29' E 140°01'1 1.4
2014-Aug-16 05:33N 35°29' E 139°59'0 0.0
2014-Aug-16 04:33N 35°29' E 139°59'0 0.0
2014-Aug-16 03:33N 35°29' E 139°59'1 1.3
2014-Aug-16 02:33N 35°29' E 140°00'1 0.7
2014-Aug-16 01:33N 35°29' E 139°60'1 1.0
2014-Aug-16 00:33N 35°30' E 139°59'8 8.1
2014-Aug-15 23:33N 35°36' E 140°06'0 0.1
2014-Aug-15 22:33N 35°36' E 140°06'0 0.0
2014-Aug-15 21:33N 35°36' E 140°06'0 0.0
2014-Aug-15 20:33N 35°36' E 140°06'0 0.0
2014-Aug-15 19:33N 35°36' E 140°06'0 0.0
2014-Aug-15 18:33N 35°36' E 140°06'0 0.0
2014-Aug-15 17:33N 35°36' E 140°06'0 0.0
2014-Aug-15 16:33N 35°36' E 140°06'0 0.0
2014-Aug-15 15:33N 35°36' E 140°06'0 0.0
2014-Aug-15 14:33N 35°36' E 140°06'0 0.0
2014-Aug-15 08:33N 35°36' E 140°06'0 0.0
2014-Aug-15 07:33N 35°36' E 140°06'0 0.0
2014-Aug-15 06:33N 35°36' E 140°06'4 3.8
2014-Aug-15 05:33N 35°32' E 140°06'1 1.3
2014-Aug-15 04:33N 35°33' E 140°05'0 0.0
2014-Aug-15 03:33N 35°33' E 140°05'0 0.0
2014-Aug-15 02:32N 35°33' E 140°05'0 0.0
2014-Aug-15 01:33N 35°33' E 140°05'3 3.4
2014-Aug-15 00:33N 35°31' E 140°01'1 0.9
2014-Aug-14 23:33N 35°31' E 140°02'6 6.0
2014-Aug-14 22:33N 35°36' E 140°06'0 0.0
2014-Aug-14 21:33N 35°36' E 140°06'0 0.0
2014-Aug-14 20:33N 35°36' E 140°06'0 0.0
2014-Aug-14 19:33N 35°36' E 140°06'0 0.0
2014-Aug-14 18:33N 35°36' E 140°06'0 0.0
2014-Aug-14 17:33N 35°36' E 140°06'0 0.0
2014-Aug-14 16:33N 35°36' E 140°06'0 0.0
2014-Aug-14 15:33N 35°36' E 140°06'0 0.0
2014-Aug-14 07:33N 35°36' E 140°06'0 0.0
2014-Aug-14 06:33N 35°36' E 140°06'0 0.0
2014-Aug-14 05:33N 35°36' E 140°06'0 0.0
2014-Aug-14 04:33N 35°36' E 140°06'1 0.7
2014-Aug-14 03:33N 35°36' E 140°06'1 1.3
2014-Aug-14 02:33N 35°37' E 140°05'0 0.0
2014-Aug-14 01:33N 35°37' E 140°05'1 0.8
2014-Aug-14 00:33N 35°36' E 140°05'0 0.3
2014-Aug-13 23:33N 35°36' E 140°05'1 1.3
2014-Aug-13 22:33N 35°36' E 140°06'0 0.0
2014-Aug-13 21:33N 35°36' E 140°06'0 0.0
2014-Aug-13 20:33N 35°36' E 140°06'0 0.0
2014-Aug-13 19:33N 35°36' E 140°06'0 0.0
2014-Aug-13 18:33N 35°36' E 140°06'0 0.0
2014-Aug-13 17:33N 35°36' E 140°06'0 0.0
2014-Aug-13 16:33N 35°36' E 140°06'0 0.0
2014-Aug-13 09:33N 35°36' E 140°06'5 4.5
2014-Aug-13 08:33N 35°34' E 140°02'5 5.3
2014-Aug-13 07:33N 35°31' E 139°56'0 0.0
2014-Aug-13 06:33N 35°31' E 139°56'1 1.5
2014-Aug-13 05:33N 35°30' E 139°55'1 1.4
2014-Aug-13 04:33N 35°29' E 139°54'3 3.0
2014-Aug-13 03:33N 35°28' E 139°58'0 0.5
2014-Aug-13 02:33N 35°29' E 139°59'0 0.0
2014-Aug-13 01:33N 35°29' E 139°58'0 0.1
2014-Aug-13 00:34N 35°29' E 139°59'2 1.8
2014-Aug-12 23:33N 35°29' E 140°01'9 8.5
2014-Aug-12 22:33N 35°36' E 140°06'0 0.0
2014-Aug-12 21:33N 35°36' E 140°06'0 0.0
2014-Aug-12 20:33N 35°36' E 140°06'0 0.0
2014-Aug-12 19:33N 35°36' E 140°06'0 0.0
2014-Aug-12 18:33N 35°36' E 140°06'0 0.0
2014-Aug-12 17:33N 35°36' E 140°06'0 0.0
2014-Aug-12 16:33N 35°36' E 140°06'0 0.0
2014-Aug-12 09:05N 35°36' E 140°06'1 2.1
2014-Aug-12 08:33N 35°36' E 140°05'8 7.6
2014-Aug-12 07:33N 35°29' E 140°01'1 1.3
2014-Aug-12 06:33N 35°30' E 139°59'0 0.4
2014-Aug-12 05:33N 35°30' E 139°59'1 1.4
2014-Aug-12 04:33N 35°28' E 139°58'0 0.1
2014-Aug-12 03:33N 35°28' E 139°58'1 1.1
2014-Aug-12 02:34N 35°30' E 139°58'10 9.7
2014-Aug-12 01:33N 35°36' E 140°07'0 0.1
2014-Aug-12 00:33N 35°36' E 140°07'0 0.0
2014-Aug-11 23:33N 35°36' E 140°07'1 0.9
2014-Aug-11 22:33N 35°35' E 140°06'2 2.4
2014-Aug-11 21:34N 35°35' E 140°04'0 0.3
2014-Aug-11 20:33N 35°36' E 140°03'2 2.5
2014-Aug-11 19:33N 35°36' E 140°06'0 0.0
2014-Aug-11 18:33N 35°36' E 140°06'0 0.0
2014-Aug-11 17:33N 35°36' E 140°06'0 0.0
2014-Aug-11 16:33N 35°36' E 140°06'0 0.0
2014-Aug-11 15:33N 35°36' E 140°06'0 0.0
2014-Aug-11 14:33N 35°36' E 140°06'0 0.0
2014-Aug-11 13:33N 35°36' E 140°06'0 0.0
2014-Aug-11 12:33N 35°36' E 140°06'0 0.0
2014-Aug-11 11:33N 35°36' E 140°06'0 0.0
2014-Aug-11 10:33N 35°36' E 140°06'0 0.0
2014-Aug-11 09:33N 35°36' E 140°06'0 0.0
2014-Aug-11 08:33N 35°36' E 140°06'0 0.0
2014-Aug-11 07:34N 35°36' E 140°06'1 0.6
2014-Aug-11 06:33N 35°36' E 140°06'9 9.0
2014-Aug-11 05:34N 35°28' E 139°59'0 0.0
2014-Aug-11 04:34N 35°28' E 139°59'0 0.0
2014-Aug-11 03:33N 35°28' E 139°59'0 0.0
2014-Aug-11 02:34N 35°28' E 139°59'0 0.0
2014-Aug-11 01:34N 35°28' E 139°59'0 0.0
2014-Aug-11 00:33N 35°28' E 139°59'1 1.2
2014-Aug-10 23:34N 35°28' E 139°58'1010.0
2014-Aug-10 22:34N 35°36' E 140°06'1 0.7
2014-Aug-10 21:34N 35°36' E 140°06'0 0.0
2014-Aug-10 20:34N 35°36' E 140°06'0 0.0
2014-Aug-10 19:34N 35°36' E 140°06'0 0.0
2014-Aug-10 18:34N 35°36' E 140°06'0 0.0
2014-Aug-10 17:33N 35°36' E 140°06'0 0.0
2014-Aug-10 16:33N 35°36' E 140°06'0 0.0
2014-Aug-10 15:33N 35°36' E 140°06'0 0.0
2014-Aug-10 14:34N 35°36' E 140°06'0 0.0
2014-Aug-10 13:34N 35°36' E 140°06'0 0.0
2014-Aug-10 12:33N 35°36' E 140°06'0 0.0
2014-Aug-10 11:34N 35°36' E 140°06'0 0.0
2014-Aug-10 10:33N 35°36' E 140°06'0 0.0
2014-Aug-10 09:33N 35°36' E 140°06'0 0.0
2014-Aug-10 08:34N 35°36' E 140°06'0 0.0
2014-Aug-10 07:33N 35°36' E 140°06'0 0.0
2014-Aug-10 06:33N 35°36' E 140°06'4 3.7
2014-Aug-10 05:33N 35°33' E 140°03'3 2.9
2014-Aug-10 04:34N 35°31' E 140°01'  
Track history (hours):
 
Tides and Currents Weather Stations Pressure Air Temp Water Temp Dewpoint Dewpoint Depression Visibility Wind Speed Wind Dir Waves Ship Positions

Daio

Last reported at 2014-Aug-20 04:33 UTC. Time now 2014-Aug-20 04:53 UTC.
Position N 35°30' E 139°60'.

Length 36 m; draft 3.4 m.

Type: Tug. MMSI: 431003092.

Date/timePositionNaut miles runAvg speedWind from/ knotsBaromVisibWave heightAir tempDewpointWater temp
2014-Aug-20 04:33N 35°30' E 139°60'0 0.0
2014-Aug-20 03:33N 35°30' E 139°60'0 0.0
2014-Aug-20 02:33N 35°30' E 139°60'0 0.0
2014-Aug-20 01:33N 35°30' E 139°60'0 0.0
2014-Aug-20 00:33N 35°30' E 139°60'0 0.0
2014-Aug-19 23:33N 35°30' E 139°60'2 2.1
2014-Aug-19 22:33N 35°31' E 140°02'3 3.1
2014-Aug-19 21:33N 35°34' E 140°03'3 3.4
2014-Aug-19 20:33N 35°36' E 140°06'0 0.0
2014-Aug-19 19:33N 35°36' E 140°06'0 0.0
2014-Aug-19 18:33N 35°36' E 140°06'0 0.0
2014-Aug-19 17:33N 35°36' E 140°06'0 0.0
2014-Aug-19 16:33N 35°36' E 140°06'0 0.0
2014-Aug-19 15:33N 35°36' E 140°06'0 0.0
2014-Aug-19 14:33N 35°36' E 140°06'0 0.0
2014-Aug-19 13:33N 35°36' E 140°06'0 0.0
2014-Aug-19 08:03N 35°36' E 140°06'0 0.0
2014-Aug-19 07:33N 35°36' E 140°06'0 0.0
2014-Aug-19 06:33N 35°36' E 140°06'0 0.0
2014-Aug-19 05:33N 35°36' E 140°06'2 2.1
2014-Aug-19 04:33N 35°35' E 140°04'8 8.3
2014-Aug-19 03:33N 35°28' E 139°58'0 0.1
2014-Aug-19 02:33N 35°28' E 139°58'2 2.0
2014-Aug-19 01:34N 35°30' E 139°56'1 1.0
2014-Aug-19 00:34N 35°31' E 139°56'8 7.8
2014-Aug-18 23:33N 35°35' E 140°04'1 1.3
2014-Aug-18 22:33N 35°35' E 140°06'1 1.5
2014-Aug-18 21:33N 35°35' E 140°04'0 0.1
2014-Aug-18 20:34N 35°35' E 140°04'2 2.2
2014-Aug-18 19:33N 35°36' E 140°06'0 0.0
2014-Aug-18 18:33N 35°36' E 140°06'0 0.0
2014-Aug-18 17:33N 35°36' E 140°06'0 0.0
2014-Aug-18 16:33N 35°36' E 140°06'0 0.0
2014-Aug-18 15:33N 35°36' E 140°06'0 0.0
2014-Aug-18 14:33N 35°36' E 140°06'0 0.0
2014-Aug-18 13:33N 35°36' E 140°06'0 0.0
2014-Aug-18 12:33N 35°36' E 140°06'0 0.0
2014-Aug-18 11:33N 35°36' E 140°06'0 0.0
2014-Aug-18 10:33N 35°36' E 140°06'0 0.0
2014-Aug-18 09:33N 35°36' E 140°06'0 0.0
2014-Aug-18 08:33N 35°36' E 140°06'0 0.0
2014-Aug-18 07:33N 35°36' E 140°06'6 5.7
2014-Aug-18 06:34N 35°32' E 140°01'5 4.8
2014-Aug-18 05:34N 35°28' E 139°58'1 0.6
2014-Aug-18 04:34N 35°29' E 139°59'0 0.0
2014-Aug-18 03:33N 35°29' E 139°59'0 0.0
2014-Aug-18 02:33N 35°29' E 139°59'2 1.5
2014-Aug-18 01:34N 35°29' E 140°00'1 0.8
2014-Aug-18 00:34N 35°29' E 139°60'9 1.4
2014-Aug-17 18:33N 35°36' E 140°06'0 0.0
2014-Aug-17 17:33N 35°36' E 140°06'0 0.0
2014-Aug-17 16:33N 35°36' E 140°06'0 0.0
2014-Aug-17 15:33N 35°36' E 140°06'0 0.0
2014-Aug-17 14:34N 35°36' E 140°06'0 0.0
2014-Aug-17 13:33N 35°36' E 140°06'0 0.0
2014-Aug-17 12:33N 35°36' E 140°06'0 0.0
2014-Aug-17 11:33N 35°36' E 140°06'0 0.0
2014-Aug-17 10:34N 35°36' E 140°06'0 0.0
2014-Aug-17 09:34N 35°36' E 140°06'5 5.2
2014-Aug-17 08:34N 35°32' E 140°02'5 5.1
2014-Aug-17 07:33N 35°28' E 139°58'1 0.5
2014-Aug-17 06:33N 35°29' E 139°58'1 0.6
2014-Aug-17 05:33N 35°29' E 139°57'0 0.1
2014-Aug-17 04:33N 35°29' E 139°57'3 2.7
2014-Aug-17 03:33N 35°29' E 140°00'2 1.7
2014-Aug-17 02:33N 35°29' E 139°58'2 2.2
2014-Aug-17 01:33N 35°31' E 139°56'0 0.1
2014-Aug-17 00:33N 35°31' E 139°56'2 1.9
2014-Aug-16 23:33N 35°29' E 139°55'0 0.1
2014-Aug-16 22:33N 35°29' E 139°55'5 5.0
2014-Aug-16 21:33N 35°32' E 139°59'6 5.8
2014-Aug-16 20:33N 35°35' E 140°06'1 1.0
2014-Aug-16 19:33N 35°36' E 140°06'0 0.0
2014-Aug-16 08:33N 35°36' E 140°06'7 7.2
2014-Aug-16 07:33N 35°30' E 140°01'1 1.4
2014-Aug-16 06:33N 35°29' E 140°01'1 1.4
2014-Aug-16 05:33N 35°29' E 139°59'0 0.0
2014-Aug-16 04:33N 35°29' E 139°59'0 0.0
2014-Aug-16 03:33N 35°29' E 139°59'1 1.3
2014-Aug-16 02:33N 35°29' E 140°00'1 0.7
2014-Aug-16 01:33N 35°29' E 139°60'1 1.0
2014-Aug-16 00:33N 35°30' E 139°59'8 8.1
2014-Aug-15 23:33N 35°36' E 140°06'0 0.1
2014-Aug-15 22:33N 35°36' E 140°06'0 0.0
2014-Aug-15 21:33N 35°36' E 140°06'0 0.0
2014-Aug-15 20:33N 35°36' E 140°06'0 0.0
2014-Aug-15 19:33N 35°36' E 140°06'0 0.0
2014-Aug-15 18:33N 35°36' E 140°06'0 0.0
2014-Aug-15 17:33N 35°36' E 140°06'0 0.0
2014-Aug-15 16:33N 35°36' E 140°06'0 0.0
2014-Aug-15 15:33N 35°36' E 140°06'0 0.0
2014-Aug-15 14:33N 35°36' E 140°06'0 0.0
2014-Aug-15 08:33N 35°36' E 140°06'0 0.0
2014-Aug-15 07:33N 35°36' E 140°06'0 0.0
2014-Aug-15 06:33N 35°36' E 140°06'4 3.8
2014-Aug-15 05:33N 35°32' E 140°06'1 1.3
2014-Aug-15 04:33N 35°33' E 140°05'0 0.0
2014-Aug-15 03:33N 35°33' E 140°05'0 0.0
2014-Aug-15 02:32N 35°33' E 140°05'0 0.0
2014-Aug-15 01:33N 35°33' E 140°05'3 3.4
2014-Aug-15 00:33N 35°31' E 140°01'1 0.9
2014-Aug-14 23:33N 35°31' E 140°02'6 6.0
2014-Aug-14 22:33N 35°36' E 140°06'0 0.0
2014-Aug-14 21:33N 35°36' E 140°06'0 0.0
2014-Aug-14 20:33N 35°36' E 140°06'0 0.0
2014-Aug-14 19:33N 35°36' E 140°06'0 0.0
2014-Aug-14 18:33N 35°36' E 140°06'0 0.0
2014-Aug-14 17:33N 35°36' E 140°06'0 0.0
2014-Aug-14 16:33N 35°36' E 140°06'0 0.0
2014-Aug-14 15:33N 35°36' E 140°06'0 0.0
2014-Aug-14 07:33N 35°36' E 140°06'0 0.0
2014-Aug-14 06:33N 35°36' E 140°06'0 0.0
2014-Aug-14 05:33N 35°36' E 140°06'0 0.0
2014-Aug-14 04:33N 35°36' E 140°06'1 0.7
2014-Aug-14 03:33N 35°36' E 140°06'1 1.3
2014-Aug-14 02:33N 35°37' E 140°05'0 0.0
2014-Aug-14 01:33N 35°37' E 140°05'1 0.8
2014-Aug-14 00:33N 35°36' E 140°05'0 0.3
2014-Aug-13 23:33N 35°36' E 140°05'1 1.3
2014-Aug-13 22:33N 35°36' E 140°06'0 0.0
2014-Aug-13 21:33N 35°36' E 140°06'0 0.0
2014-Aug-13 20:33N 35°36' E 140°06'0 0.0
2014-Aug-13 19:33N 35°36' E 140°06'0 0.0
2014-Aug-13 18:33N 35°36' E 140°06'0 0.0
2014-Aug-13 17:33N 35°36' E 140°06'0 0.0
2014-Aug-13 16:33N 35°36' E 140°06'0 0.0
2014-Aug-13 09:33N 35°36' E 140°06'5 4.5
2014-Aug-13 08:33N 35°34' E 140°02'5 5.3
2014-Aug-13 07:33N 35°31' E 139°56'0 0.0
2014-Aug-13 06:33N 35°31' E 139°56'1 1.5
2014-Aug-13 05:33N 35°30' E 139°55'1 1.4
2014-Aug-13 04:33N 35°29' E 139°54'3 3.0
2014-Aug-13 03:33N 35°28' E 139°58'0 0.5
2014-Aug-13 02:33N 35°29' E 139°59'0 0.0
2014-Aug-13 01:33N 35°29' E 139°58'0 0.1
2014-Aug-13 00:34N 35°29' E 139°59'2 1.8
2014-Aug-12 23:33N 35°29' E 140°01'9 8.5
2014-Aug-12 22:33N 35°36' E 140°06'0 0.0
2014-Aug-12 21:33N 35°36' E 140°06'0 0.0
2014-Aug-12 20:33N 35°36' E 140°06'0 0.0
2014-Aug-12 19:33N 35°36' E 140°06'0 0.0
2014-Aug-12 18:33N 35°36' E 140°06'0 0.0
2014-Aug-12 17:33N 35°36' E 140°06'0 0.0
2014-Aug-12 16:33N 35°36' E 140°06'0 0.0
2014-Aug-12 09:05N 35°36' E 140°06'1 2.1
2014-Aug-12 08:33N 35°36' E 140°05'8 7.6
2014-Aug-12 07:33N 35°29' E 140°01'1 1.3
2014-Aug-12 06:33N 35°30' E 139°59'0 0.4
2014-Aug-12 05:33N 35°30' E 139°59'1 1.4
2014-Aug-12 04:33N 35°28' E 139°58'0 0.1
2014-Aug-12 03:33N 35°28' E 139°58'1 1.1
2014-Aug-12 02:34N 35°30' E 139°58'10 9.7
2014-Aug-12 01:33N 35°36' E 140°07'0 0.1
2014-Aug-12 00:33N 35°36' E 140°07'0 0.0
2014-Aug-11 23:33N 35°36' E 140°07'1 0.9
2014-Aug-11 22:33N 35°35' E 140°06'2 2.4
2014-Aug-11 21:34N 35°35' E 140°04'0 0.3
2014-Aug-11 20:33N 35°36' E 140°03'2 2.5
2014-Aug-11 19:33N 35°36' E 140°06'0 0.0
2014-Aug-11 18:33N 35°36' E 140°06'0 0.0
2014-Aug-11 17:33N 35°36' E 140°06'0 0.0
2014-Aug-11 16:33N 35°36' E 140°06'0 0.0
2014-Aug-11 15:33N 35°36' E 140°06'0 0.0
2014-Aug-11 14:33N 35°36' E 140°06'0 0.0
2014-Aug-11 13:33N 35°36' E 140°06'0 0.0
2014-Aug-11 12:33N 35°36' E 140°06'0 0.0
2014-Aug-11 11:33N 35°36' E 140°06'0 0.0
2014-Aug-11 10:33N 35°36' E 140°06'0 0.0
2014-Aug-11 09:33N 35°36' E 140°06'0 0.0
2014-Aug-11 08:33N 35°36' E 140°06'0 0.0
2014-Aug-11 07:34N 35°36' E 140°06'1 0.6
2014-Aug-11 06:33N 35°36' E 140°06'9 9.0
2014-Aug-11 05:34N 35°28' E 139°59'0 0.0
2014-Aug-11 04:34N 35°28' E 139°59'0 0.0
2014-Aug-11 03:33N 35°28' E 139°59'0 0.0
2014-Aug-11 02:34N 35°28' E 139°59'0 0.0
2014-Aug-11 01:34N 35°28' E 139°59'0 0.0
2014-Aug-11 00:33N 35°28' E 139°59'1 1.2
2014-Aug-10 23:34N 35°28' E 139°58'1010.0
2014-Aug-10 22:34N 35°36' E 140°06'1 0.7
2014-Aug-10 21:34N 35°36' E 140°06'0 0.0
2014-Aug-10 20:34N 35°36' E 140°06'0 0.0
2014-Aug-10 19:34N 35°36' E 140°06'0 0.0
2014-Aug-10 18:34N 35°36' E 140°06'0 0.0
2014-Aug-10 17:33N 35°36' E 140°06'0 0.0
2014-Aug-10 16:33N 35°36' E 140°06'0 0.0
2014-Aug-10 15:33N 35°36' E 140°06'0 0.0
2014-Aug-10 14:34N 35°36' E 140°06'0 0.0
2014-Aug-10 13:34N 35°36' E 140°06'0 0.0
2014-Aug-10 12:33N 35°36' E 140°06'0 0.0
2014-Aug-10 11:34N 35°36' E 140°06'0 0.0
2014-Aug-10 10:33N 35°36' E 140°06'0 0.0
2014-Aug-10 09:33N 35°36' E 140°06'0 0.0
2014-Aug-10 08:34N 35°36' E 140°06'0 0.0
2014-Aug-10 07:33N 35°36' E 140°06'0 0.0
2014-Aug-10 06:33N 35°36' E 140°06'4 3.7
2014-Aug-10 05:33N 35°33' E 140°03'3 2.9
2014-Aug-10 04:34N 35°31' E 140°01'  

Dump ship's entire track history